createdAt,value
2018-12-23T00:00:50.564Z,5.78
2018-12-23T00:03:18.124Z,5.74
2018-12-23T00:05:45.674Z,5.70
2018-12-23T00:08:13.167Z,5.68
2018-12-23T00:10:40.755Z,5.67
2018-12-23T00:13:08.275Z,5.70
2018-12-23T00:15:35.793Z,5.72
2018-12-23T00:18:03.336Z,5.68
2018-12-23T00:20:30.891Z,5.65
2018-12-23T00:22:58.454Z,5.65
2018-12-23T00:25:26.012Z,5.60
2018-12-23T00:27:53.690Z,5.52
2018-12-23T00:30:21.185Z,5.58
2018-12-23T00:32:48.797Z,5.61
2018-12-23T00:35:20.337Z,5.68
2018-12-23T00:37:45.996Z,5.69
2018-12-23T00:40:13.589Z,5.67
2018-12-23T00:42:41.389Z,5.62
2018-12-23T00:45:08.947Z,5.66
2018-12-23T00:47:36.525Z,5.64
2018-12-23T00:50:05.607Z,5.67
2018-12-23T00:52:33.106Z,5.68
2018-12-23T00:55:00.624Z,5.68
2018-12-23T00:57:28.283Z,5.69
2018-12-23T00:59:55.782Z,5.72
2018-12-23T01:02:23.332Z,5.70
2018-12-23T01:04:50.841Z,5.71
2018-12-23T01:07:18.423Z,5.70
2018-12-23T01:09:45.997Z,5.64
2018-12-23T01:12:13.497Z,5.58
2018-12-23T01:14:41.042Z,5.61
2018-12-23T01:17:08.660Z,5.55
2018-12-23T01:19:36.323Z,5.53
2018-12-23T01:22:03.886Z,5.56
2018-12-23T01:24:31.447Z,5.57
2018-12-23T01:26:59.004Z,5.59
2018-12-23T01:29:26.503Z,5.62
2018-12-23T01:31:54.017Z,5.60
2018-12-23T01:34:21.529Z,5.52
2018-12-23T01:36:49.040Z,5.51
2018-12-23T01:39:16.598Z,5.48
2018-12-23T01:41:44.089Z,5.50
2018-12-23T01:44:11.728Z,5.48
2018-12-23T01:46:39.275Z,5.34
2018-12-23T01:49:06.774Z,5.36
2018-12-23T01:51:34.296Z,5.36
2018-12-23T01:54:01.830Z,5.32
2018-12-23T01:56:29.354Z,5.35
2018-12-23T01:58:56.871Z,5.29
2018-12-23T02:01:24.418Z,5.34
2018-12-23T02:03:52.002Z,5.31
2018-12-23T02:06:19.667Z,5.36
2018-12-23T02:08:47.219Z,5.44
2018-12-23T02:11:14.777Z,5.39
2018-12-23T02:13:42.342Z,5.33
2018-12-23T02:16:09.962Z,5.35
2018-12-23T02:18:37.559Z,5.41
2018-12-23T02:21:05.097Z,5.43
2018-12-23T02:23:33.098Z,5.45
2018-12-23T02:26:00.665Z,5.46
2018-12-23T02:28:28.209Z,5.40
2018-12-23T02:30:55.775Z,5.42
2018-12-23T02:33:23.275Z,5.47
2018-12-23T02:35:55.537Z,5.53
2018-12-23T02:38:20.410Z,5.50
2018-12-23T02:40:47.910Z,5.50
2018-12-23T02:43:15.554Z,5.52
2018-12-23T02:45:43.078Z,5.57
2018-12-23T02:48:10.595Z,5.57
2018-12-23T02:50:38.338Z,5.55
2018-12-23T02:53:06.061Z,5.60
2018-12-23T02:55:34.753Z,5.60
2018-12-23T02:58:02.307Z,5.61
2018-12-23T03:00:29.867Z,5.62
2018-12-23T03:02:57.429Z,5.56
2018-12-23T03:05:24.989Z,5.62
2018-12-23T03:07:52.549Z,5.66
2018-12-23T03:10:20.111Z,5.69
2018-12-23T03:12:47.653Z,5.72
2018-12-23T03:15:15.228Z,5.66
2018-12-23T03:17:42.727Z,5.69
2018-12-23T03:20:10.303Z,5.69
2018-12-23T03:22:37.841Z,5.69
2018-12-23T03:25:05.483Z,5.72
2018-12-23T03:27:33.027Z,5.77
2018-12-23T03:30:00.591Z,5.77
2018-12-23T03:32:28.149Z,5.70
2018-12-23T03:34:55.707Z,5.69
2018-12-23T03:37:23.204Z,5.71
2018-12-23T03:39:50.829Z,5.72
2018-12-23T03:42:18.390Z,5.76
2018-12-23T03:44:45.951Z,5.73
2018-12-23T03:47:13.512Z,5.73
2018-12-23T03:49:41.068Z,5.78
2018-12-23T03:52:08.628Z,5.79
2018-12-23T03:54:36.192Z,5.78
2018-12-23T03:57:03.749Z,5.78
2018-12-23T03:59:31.236Z,5.80
2018-12-23T04:01:59.177Z,5.79
2018-12-23T04:04:26.679Z,5.79
2018-12-23T04:06:54.303Z,5.73
2018-12-23T04:09:21.857Z,5.77
2018-12-23T04:11:49.353Z,5.78
2018-12-23T04:14:16.845Z,5.78
2018-12-23T04:16:44.435Z,5.72
2018-12-23T04:19:11.920Z,5.74
2018-12-23T04:21:39.553Z,5.74
2018-12-23T04:24:07.117Z,5.78
2018-12-23T04:26:34.673Z,5.78
2018-12-23T04:29:02.208Z,5.82
2018-12-23T04:31:29.794Z,5.80
2018-12-23T04:33:57.353Z,5.85
2018-12-23T04:36:33.843Z,5.85
2018-12-23T04:38:54.391Z,5.86
2018-12-23T04:41:21.921Z,5.83
2018-12-23T04:43:49.544Z,5.86
2018-12-23T04:46:17.099Z,5.88
2018-12-23T04:48:44.660Z,5.92
2018-12-23T04:51:12.161Z,5.93
2018-12-23T04:53:39.680Z,5.94
2018-12-23T04:56:07.227Z,5.93
2018-12-23T04:58:34.917Z,5.95
2018-12-23T05:01:02.433Z,5.96
2018-12-23T05:03:29.949Z,5.97
2018-12-23T05:05:57.520Z,6.01
2018-12-23T05:08:25.013Z,6.00
2018-12-23T05:10:52.528Z,6.00
2018-12-23T05:13:20.033Z,6.03
2018-12-23T05:15:47.545Z,6.02
2018-12-23T05:18:15.184Z,6.08
2018-12-23T05:20:42.737Z,6.07
2018-12-23T05:23:10.229Z,6.08
2018-12-23T05:25:37.725Z,6.06
2018-12-23T05:28:05.313Z,6.08
2018-12-23T05:30:32.809Z,6.12
2018-12-23T05:33:00.334Z,6.10
2018-12-23T05:35:28.097Z,6.09
2018-12-23T05:37:55.657Z,6.09
2018-12-23T05:40:23.314Z,6.09
2018-12-23T05:42:50.950Z,6.15
2018-12-23T05:45:18.473Z,6.13
2018-12-23T05:47:45.971Z,6.14
2018-12-23T05:50:13.492Z,6.17
2018-12-23T05:52:41.016Z,6.18
2018-12-23T05:55:08.585Z,6.15
2018-12-23T05:57:36.079Z,6.14
2018-12-23T06:00:04.092Z,6.14
2018-12-23T06:02:31.605Z,6.23
2018-12-23T06:04:59.095Z,6.23
2018-12-23T06:07:26.694Z,6.32
2018-12-23T06:09:54.202Z,6.28
2018-12-23T06:12:21.807Z,6.27
2018-12-23T06:14:49.313Z,6.32
2018-12-23T06:17:16.930Z,6.34
2018-12-23T06:19:44.484Z,6.32
2018-12-23T06:22:12.056Z,6.34
2018-12-23T06:24:39.603Z,6.33
2018-12-23T06:27:07.165Z,6.40
2018-12-23T06:29:34.661Z,6.38
2018-12-23T06:32:02.158Z,6.41
2018-12-23T06:34:29.650Z,6.41
2018-12-23T06:36:57.202Z,6.42
2018-12-23T06:39:24.692Z,6.44
2018-12-23T06:41:52.230Z,6.45
2018-12-23T06:44:19.781Z,6.45
2018-12-23T06:46:47.277Z,6.46
2018-12-23T06:49:14.899Z,6.49
2018-12-23T06:51:42.476Z,6.48
2018-12-23T06:54:10.017Z,6.49
2018-12-23T06:56:37.518Z,6.49
2018-12-23T06:59:05.022Z,6.51
2018-12-23T07:01:32.526Z,6.53
2018-12-23T07:04:00.022Z,6.44
2018-12-23T07:06:27.618Z,6.48
2018-12-23T07:08:55.176Z,6.46
2018-12-23T07:11:22.732Z,6.48
2018-12-23T07:13:50.292Z,6.52
2018-12-23T07:16:17.852Z,6.53
2018-12-23T07:18:45.416Z,6.49
2018-12-23T07:21:12.984Z,6.52
2018-12-23T07:23:40.488Z,6.54
2018-12-23T07:26:08.093Z,6.52
2018-12-23T07:28:35.654Z,6.53
2018-12-23T07:31:03.144Z,6.52
2018-12-23T07:33:30.674Z,6.52
2018-12-23T07:35:58.203Z,6.54
2018-12-23T07:38:25.729Z,6.54
2018-12-23T07:40:53.353Z,6.58
2018-12-23T07:43:20.844Z,6.58
2018-12-23T07:45:48.337Z,6.60
2018-12-23T07:48:15.934Z,6.59
2018-12-23T07:50:43.490Z,6.59
2018-12-23T07:53:10.984Z,6.59
2018-12-23T07:55:38.481Z,6.60
2018-12-23T07:58:06.070Z,6.65
2018-12-23T08:00:33.585Z,6.67
2018-12-23T08:03:01.188Z,6.70
2018-12-23T08:05:28.675Z,6.70
2018-12-23T08:07:56.179Z,6.73
2018-12-23T08:10:23.677Z,6.76
2018-12-23T08:12:51.221Z,6.80
2018-12-23T08:15:18.782Z,6.80
2018-12-23T08:17:46.278Z,6.86
2018-12-23T08:20:13.800Z,6.82
2018-12-23T08:22:41.294Z,6.85
2018-12-23T08:25:08.794Z,6.83
2018-12-23T08:27:36.299Z,6.85
2018-12-23T08:30:04.672Z,6.90
2018-12-23T08:32:32.181Z,6.88
2018-12-23T08:34:59.768Z,6.85
2018-12-23T08:37:27.273Z,6.92
2018-12-23T08:39:54.805Z,6.98
2018-12-23T08:42:22.350Z,7.01
2018-12-23T08:44:49.911Z,7.01
2018-12-23T08:47:17.473Z,7.05
2018-12-23T08:49:45.031Z,7.09
2018-12-23T08:52:12.568Z,7.14
2018-12-23T08:54:40.155Z,7.14
2018-12-23T08:57:07.648Z,7.18
2018-12-23T08:59:35.144Z,7.21
2018-12-23T09:02:02.668Z,7.18
2018-12-23T09:04:30.184Z,7.32
2018-12-23T09:06:57.747Z,7.38
2018-12-23T09:09:25.790Z,7.39
2018-12-23T09:11:53.379Z,7.43
2018-12-23T09:14:21.045Z,7.55
2018-12-23T09:16:48.599Z,7.62
2018-12-23T09:19:16.166Z,7.68
2018-12-23T09:21:43.715Z,7.60
2018-12-23T09:24:11.283Z,7.61
2018-12-23T09:26:39.921Z,7.61
2018-12-23T09:29:07.420Z,7.56
2018-12-23T09:31:35.909Z,7.66
2018-12-23T09:34:03.466Z,7.76
2018-12-23T09:36:30.958Z,7.73
2018-12-23T09:38:58.483Z,7.78
2018-12-23T09:41:25.990Z,7.87
2018-12-23T09:43:53.603Z,7.91
2018-12-23T09:46:21.166Z,7.87
2018-12-23T09:48:48.673Z,7.99
2018-12-23T09:51:16.197Z,8.04
2018-12-23T09:53:43.745Z,8.03
2018-12-23T09:56:11.301Z,8.00
2018-12-23T09:58:38.865Z,8.03
2018-12-23T10:01:06.358Z,8.09
2018-12-23T10:03:33.857Z,8.05
2018-12-23T10:06:01.453Z,8.11
2018-12-23T10:08:29.015Z,8.06
2018-12-23T10:10:56.517Z,7.98
2018-12-23T10:13:24.020Z,8.08
2018-12-23T10:15:51.515Z,8.10
2018-12-23T10:18:19.140Z,8.07
2018-12-23T10:20:46.702Z,8.15
2018-12-23T10:23:14.261Z,8.10
2018-12-23T10:25:41.776Z,8.22
2018-12-23T10:28:09.378Z,8.22
2018-12-23T10:30:36.872Z,8.27
2018-12-23T10:33:04.410Z,8.24
2018-12-23T10:35:31.961Z,8.25
2018-12-23T10:37:59.520Z,8.20
2018-12-23T10:40:27.026Z,8.27
2018-12-23T10:42:54.590Z,8.23
2018-12-23T10:45:22.216Z,8.19
2018-12-23T10:47:49.773Z,8.25
2018-12-23T10:50:17.325Z,8.11
2018-12-23T10:52:44.841Z,8.19
2018-12-23T10:55:12.440Z,8.28
2018-12-23T10:57:40.013Z,8.19
2018-12-23T11:00:10.952Z,8.21
2018-12-23T11:02:38.498Z,8.26
2018-12-23T11:05:06.687Z,8.32
2018-12-23T11:07:34.201Z,8.37
2018-12-23T11:10:02.614Z,8.32
2018-12-23T11:12:30.375Z,8.39
2018-12-23T11:14:57.950Z,8.42
2018-12-23T11:17:26.395Z,8.33
2018-12-23T11:19:53.904Z,8.39
2018-12-23T11:22:21.402Z,8.35
2018-12-23T11:24:48.921Z,8.30
2018-12-23T11:27:16.466Z,8.26
2018-12-23T11:29:44.009Z,8.29
2018-12-23T11:32:11.872Z,8.24
2018-12-23T11:34:39.448Z,8.22
2018-12-23T11:37:06.936Z,8.20
2018-12-23T11:39:34.489Z,8.17
2018-12-23T11:42:01.982Z,8.22
2018-12-23T11:44:29.479Z,8.18
2018-12-23T11:46:57.058Z,8.15
2018-12-23T11:49:24.565Z,8.13
2018-12-23T11:51:52.157Z,8.06
2018-12-23T11:54:19.644Z,8.07
2018-12-23T11:56:47.169Z,8.10
2018-12-23T11:59:14.658Z,8.13
2018-12-23T12:01:42.203Z,8.19
2018-12-23T12:04:09.701Z,8.13
2018-12-23T12:06:37.333Z,8.20
2018-12-23T12:09:07.069Z,8.22
2018-12-23T12:11:34.989Z,8.21
2018-12-23T12:14:02.758Z,8.13
2018-12-23T12:16:30.249Z,8.21
2018-12-23T12:18:57.875Z,8.14
2018-12-23T12:21:25.451Z,8.15
2018-12-23T12:23:52.992Z,8.17
2018-12-23T12:26:20.569Z,8.16
2018-12-23T12:28:48.070Z,8.11
2018-12-23T12:31:15.680Z,8.13
2018-12-23T12:33:43.203Z,8.11
2018-12-23T12:36:10.806Z,8.07
2018-12-23T12:38:38.924Z,8.16
2018-12-23T12:41:06.527Z,8.06
2018-12-23T12:43:34.019Z,8.02
2018-12-23T12:46:01.546Z,8.05
2018-12-23T12:48:29.106Z,8.03
2018-12-23T12:50:56.665Z,7.98
2018-12-23T12:53:24.162Z,7.98
2018-12-23T12:55:51.657Z,7.98
2018-12-23T12:58:19.248Z,8.01
2018-12-23T13:00:46.811Z,7.93
2018-12-23T13:03:14.305Z,7.97
2018-12-23T13:05:41.817Z,7.92
2018-12-23T13:08:09.314Z,7.98
2018-12-23T13:10:36.810Z,7.99
2018-12-23T13:13:04.400Z,8.05
2018-12-23T13:15:32.021Z,7.94
2018-12-23T13:17:59.522Z,8.02
2018-12-23T13:20:28.389Z,8.01
2018-12-23T13:22:56.174Z,8.01
2018-12-23T13:25:23.664Z,7.99
2018-12-23T13:27:51.194Z,8.00
2018-12-23T13:30:18.754Z,7.98
2018-12-23T13:32:46.248Z,8.00
2018-12-23T13:35:13.792Z,8.03
2018-12-23T13:37:41.282Z,8.02
2018-12-23T13:40:12.678Z,8.08
2018-12-23T13:46:56.718Z,8.03
2018-12-23T13:50:03.925Z,8.04
2018-12-23T13:52:53.286Z,7.98
2018-12-23T13:56:00.483Z,7.97
2018-12-23T13:58:49.844Z,7.94
2018-12-23T14:01:57.015Z,7.91
2018-12-23T14:05:04.219Z,7.90
2018-12-23T14:07:53.697Z,7.85
2018-12-23T14:10:43.168Z,7.87
2018-12-23T14:13:11.754Z,7.88
2018-12-23T14:15:40.318Z,7.89
2018-12-23T14:18:09.001Z,7.86
2018-12-23T14:20:37.611Z,7.84
2018-12-23T14:23:06.158Z,7.89
2018-12-23T14:25:53.993Z,7.81
2018-12-23T14:28:22.605Z,7.82
2018-12-23T14:30:51.165Z,7.81
2018-12-23T14:33:19.730Z,7.81
2018-12-23T14:35:48.328Z,7.77
2018-12-23T14:38:16.907Z,7.77
2018-12-23T14:40:45.469Z,7.69
2018-12-23T14:43:14.049Z,7.76
2018-12-23T14:45:42.605Z,7.68
2018-12-23T14:48:11.187Z,7.49
2018-12-23T14:50:39.747Z,7.59
2018-12-23T14:53:08.329Z,7.56
2018-12-23T14:55:36.897Z,7.47
2018-12-23T14:58:05.486Z,7.53
2018-12-23T15:00:34.031Z,7.42
2018-12-23T15:03:02.613Z,7.42
2018-12-23T15:05:31.166Z,7.42
2018-12-23T15:07:59.761Z,7.37
2018-12-23T15:10:28.332Z,7.42
2018-12-23T15:12:56.971Z,7.36
2018-12-23T15:15:25.531Z,7.32
2018-12-23T15:17:54.121Z,7.34
2018-12-23T15:20:22.702Z,7.23
2018-12-23T15:22:51.257Z,7.32
2018-12-23T15:25:19.834Z,7.31
2018-12-23T15:30:41.326Z,7.33
2018-12-23T15:33:09.892Z,7.32
2018-12-23T15:35:38.476Z,7.29
2018-12-23T15:38:07.058Z,7.32
2018-12-23T15:40:35.646Z,7.35
2018-12-23T15:43:04.229Z,7.36
2018-12-23T15:45:32.808Z,7.35
2018-12-23T15:48:01.400Z,7.30
2018-12-23T15:50:29.980Z,7.37
2018-12-23T15:52:58.534Z,7.38
2018-12-23T15:55:27.117Z,7.35
2018-12-23T15:57:55.678Z,7.37
2018-12-23T16:00:24.268Z,7.37
2018-12-23T16:02:52.843Z,7.34
2018-12-23T16:05:21.430Z,7.28
2018-12-23T16:07:50.019Z,7.30
2018-12-23T16:10:18.599Z,7.26
2018-12-23T16:12:47.166Z,7.30
2018-12-23T16:15:15.750Z,7.28
2018-12-23T16:17:44.306Z,7.26
2018-12-23T16:20:33.677Z,7.27
2018-12-23T16:23:02.230Z,7.23
2018-12-23T16:25:30.806Z,7.31
2018-12-23T16:27:59.381Z,7.21
2018-12-23T16:30:27.964Z,7.24
2018-12-23T16:32:56.525Z,7.27
2018-12-23T16:35:25.108Z,7.26
2018-12-23T16:37:53.663Z,7.23
2018-12-23T16:40:22.257Z,7.25
2018-12-23T16:42:50.806Z,7.26
2018-12-23T16:45:19.383Z,7.23
2018-12-23T16:47:47.941Z,7.20
2018-12-23T16:50:16.533Z,7.22
2018-12-23T16:52:45.130Z,7.23
2018-12-23T16:55:13.712Z,7.22
2018-12-23T16:57:42.271Z,7.29
2018-12-23T17:00:31.657Z,7.26
2018-12-23T17:03:42.150Z,7.29
2018-12-23T17:05:49.931Z,7.18
2018-12-23T17:08:18.500Z,7.23
2018-12-23T17:10:47.083Z,7.28
2018-12-23T17:13:15.646Z,7.24
2018-12-23T17:15:44.233Z,7.26
2018-12-23T17:18:12.783Z,7.21
2018-12-23T17:20:41.371Z,7.20
2018-12-23T17:23:09.928Z,7.21
2018-12-23T17:25:38.504Z,7.20
2018-12-23T17:28:07.069Z,7.23
2018-12-23T17:30:35.628Z,7.25
2018-12-23T17:33:04.223Z,7.20
2018-12-23T17:35:51.981Z,7.25
2018-12-23T17:38:20.556Z,7.21
2018-12-23T17:40:49.112Z,7.21
2018-12-23T17:43:17.702Z,7.19
2018-12-23T17:45:46.258Z,7.24
2018-12-23T17:48:14.846Z,7.28
2018-12-23T17:50:43.399Z,7.28
2018-12-23T17:53:11.985Z,7.22
2018-12-23T17:55:40.554Z,7.24
2018-12-23T17:58:09.133Z,7.24
2018-12-23T18:00:37.693Z,7.25
2018-12-23T18:03:06.278Z,7.24
2018-12-23T18:05:34.845Z,7.27
2018-12-23T18:08:03.444Z,7.27
2018-12-23T18:10:31.999Z,7.22
2018-12-23T18:13:00.602Z,7.27
2018-12-23T18:15:29.130Z,7.24
2018-12-23T18:17:57.719Z,7.24
2018-12-23T18:20:26.274Z,7.28
2018-12-23T18:22:54.865Z,7.28
2018-12-23T18:25:23.427Z,7.28
2018-12-23T18:27:52.016Z,7.29
2018-12-23T18:30:20.566Z,7.24
2018-12-23T18:32:49.145Z,7.22
2018-12-23T18:35:17.733Z,7.25
2018-12-23T18:37:46.319Z,7.36
2018-12-23T18:40:14.880Z,7.31
2018-12-23T18:42:43.463Z,7.29
2018-12-23T18:45:12.031Z,7.21
2018-12-23T18:47:40.671Z,7.20
2018-12-23T18:50:09.240Z,7.26
2018-12-23T18:55:43.890Z,7.24
2018-12-23T18:58:12.479Z,7.24
2018-12-23T19:01:01.834Z,7.20
2018-12-23T19:03:30.419Z,7.21
2018-12-23T19:06:18.176Z,7.21
2018-12-23T19:12:33.176Z,7.21
2018-12-23T19:15:40.385Z,7.23
2018-12-23T19:18:47.563Z,7.19
2018-12-23T19:24:29.572Z,7.17
2018-12-23T19:27:19.208Z,7.14
2018-12-23T19:30:26.441Z,7.09
2018-12-23T19:33:33.627Z,7.12
2018-12-23T19:36:40.829Z,7.13
2018-12-23T19:39:30.210Z,7.13
2018-12-23T19:42:37.362Z,7.13
2018-12-23T19:45:44.560Z,7.04
2018-12-23T19:48:51.777Z,7.04
2018-12-23T19:51:58.976Z,7.07
2018-12-23T19:55:06.184Z,7.08
2018-12-23T19:58:13.348Z,7.10
2018-12-23T20:01:02.722Z,7.06
2018-12-23T20:03:52.181Z,7.02
2018-12-23T20:06:41.637Z,6.84
2018-12-23T20:09:31.026Z,6.97
2018-12-23T20:12:20.495Z,6.88
2018-12-23T20:15:09.871Z,6.97
2018-12-23T20:17:59.342Z,6.99
2018-12-23T20:21:06.552Z,6.83
2018-12-23T20:24:13.750Z,6.93
2018-12-23T20:27:18.845Z,6.95
2018-12-23T20:29:54.324Z,6.95
2018-12-23T20:33:01.529Z,6.89
2018-12-23T20:36:08.733Z,6.94
2018-12-23T20:38:58.154Z,6.95
2018-12-23T20:42:05.365Z,6.86
2018-12-23T20:44:54.786Z,6.78
2018-12-23T20:47:44.180Z,6.79
2018-12-23T20:50:33.565Z,6.80
2018-12-23T20:53:23.036Z,6.83
2018-12-23T20:56:12.407Z,6.82
2018-12-23T20:59:01.872Z,6.87
2018-12-23T21:01:51.263Z,6.81
2018-12-23T21:04:40.640Z,6.83
2018-12-23T21:07:49.138Z,6.79
2018-12-23T21:10:38.592Z,6.84
2018-12-23T21:13:28.056Z,6.87
2018-12-23T21:16:35.234Z,6.82
2018-12-23T21:19:42.467Z,6.81
2018-12-23T21:22:31.824Z,6.83
2018-12-23T21:25:38.997Z,6.79
2018-12-23T21:28:46.228Z,6.72
2018-12-23T21:31:35.608Z,6.72
2018-12-23T21:34:42.871Z,6.70
2018-12-23T21:37:32.342Z,6.79
2018-12-23T21:40:39.548Z,6.77
2018-12-23T21:43:46.760Z,6.78
2018-12-23T21:46:35.523Z,6.76
2018-12-23T21:49:24.931Z,6.71
2018-12-23T21:52:14.325Z,6.74
2018-12-23T21:55:21.515Z,6.72
2018-12-23T21:58:28.694Z,6.70
2018-12-23T22:01:18.078Z,6.60
2018-12-23T22:04:07.466Z,6.53
2018-12-23T22:06:56.891Z,6.60
2018-12-23T22:09:46.881Z,6.61
2018-12-23T22:12:55.258Z,6.62
2018-12-23T22:15:23.883Z,6.66
2018-12-23T22:17:52.439Z,6.66
2018-12-23T22:22:54.654Z,6.59
2018-12-23T22:25:23.243Z,6.60
2018-12-23T22:27:51.801Z,6.63
2018-12-23T22:30:20.440Z,6.65
2018-12-23T22:32:48.997Z,6.65
2018-12-23T22:35:17.680Z,6.67
2018-12-23T22:37:46.262Z,6.68
2018-12-23T22:40:14.854Z,6.59
2018-12-23T22:42:43.453Z,6.58
2018-12-23T22:45:12.020Z,6.61
2018-12-23T22:47:40.581Z,6.55
2018-12-23T22:50:09.189Z,6.53
2018-12-23T22:52:37.751Z,6.60
2018-12-23T22:55:06.336Z,6.54
2018-12-23T22:57:34.895Z,6.56
2018-12-23T23:00:03.482Z,6.58
2018-12-23T23:02:32.056Z,6.51
2018-12-23T23:05:00.653Z,6.64
2018-12-23T23:07:29.205Z,6.52
2018-12-23T23:09:57.816Z,6.54
2018-12-23T23:12:26.373Z,6.44
2018-12-23T23:14:54.967Z,6.46
2018-12-23T23:17:23.545Z,6.46
2018-12-23T23:19:52.132Z,6.45
2018-12-23T23:22:20.703Z,6.48
2018-12-23T23:24:49.293Z,6.51
2018-12-23T23:27:37.093Z,6.48
2018-12-23T23:30:26.466Z,6.52
2018-12-23T23:32:55.047Z,6.46
2018-12-23T23:35:23.604Z,6.47
2018-12-23T23:37:52.188Z,6.43
2018-12-23T23:40:20.750Z,6.33
2018-12-23T23:42:49.365Z,6.43
2018-12-23T23:45:17.934Z,6.34
2018-12-23T23:47:46.521Z,6.32
2018-12-23T23:50:15.086Z,6.29
2018-12-23T23:52:43.700Z,6.33
2018-12-23T23:55:12.270Z,6.23
2018-12-23T23:57:40.855Z,6.18
